sensor_id;sensor_type;location;lat;lon;timestamp;P1;durP1;ratioP1;P2;durP2;ratioP2
14078;SDS011;7115;50.150;8.568;2022-12-10T00:02:26;21.50;;;12.23;;
14078;SDS011;7115;50.150;8.568;2022-12-10T00:04:53;21.40;;;12.50;;
14078;SDS011;7115;50.150;8.568;2022-12-10T00:07:20;20.83;;;12.13;;
14078;SDS011;7115;50.150;8.568;2022-12-10T00:09:47;22.53;;;13.13;;
14078;SDS011;7115;50.150;8.568;2022-12-10T00:12:14;22.23;;;12.90;;
14078;SDS011;7115;50.150;8.568;2022-12-10T00:14:42;21.00;;;13.00;;
14078;SDS011;7115;50.150;8.568;2022-12-10T00:17:09;22.60;;;13.27;;
14078;SDS011;7115;50.150;8.568;2022-12-10T00:19:38;20.27;;;11.70;;
14078;SDS011;7115;50.150;8.568;2022-12-10T00:22:05;22.67;;;12.77;;
14078;SDS011;7115;50.150;8.568;2022-12-10T00:24:32;21.10;;;12.23;;
14078;SDS011;7115;50.150;8.568;2022-12-10T00:26:59;20.67;;;12.50;;
14078;SDS011;7115;50.150;8.568;2022-12-10T00:29:26;19.47;;;11.67;;
14078;SDS011;7115;50.150;8.568;2022-12-10T00:31:54;20.57;;;12.00;;
14078;SDS011;7115;50.150;8.568;2022-12-10T00:34:21;20.53;;;12.70;;
14078;SDS011;7115;50.150;8.568;2022-12-10T00:36:48;22.00;;;12.90;;
14078;SDS011;7115;50.150;8.568;2022-12-10T00:39:15;21.33;;;12.80;;
14078;SDS011;7115;50.150;8.568;2022-12-10T00:41:45;22.73;;;12.73;;
14078;SDS011;7115;50.150;8.568;2022-12-10T00:44:13;21.83;;;13.13;;
14078;SDS011;7115;50.150;8.568;2022-12-10T00:46:40;22.77;;;12.57;;
14078;SDS011;7115;50.150;8.568;2022-12-10T00:49:11;20.13;;;12.80;;
14078;SDS011;7115;50.150;8.568;2022-12-10T00:51:38;20.37;;;12.23;;
14078;SDS011;7115;50.150;8.568;2022-12-10T00:54:05;22.57;;;12.47;;
14078;SDS011;7115;50.150;8.568;2022-12-10T00:56:33;19.10;;;10.80;;
14078;SDS011;7115;50.150;8.568;2022-12-10T00:59:00;22.27;;;13.30;;
14078;SDS011;7115;50.150;8.568;2022-12-10T01:01:29;19.83;;;11.43;;
14078;SDS011;7115;50.150;8.568;2022-12-10T01:03:58;19.70;;;11.53;;
14078;SDS011;7115;50.150;8.568;2022-12-10T01:06:30;24.03;;;11.80;;
14078;SDS011;7115;50.150;8.568;2022-12-10T01:08:58;18.83;;;10.00;;
14078;SDS011;7115;50.150;8.568;2022-12-10T01:11:28;19.53;;;11.60;;
14078;SDS011;7115;50.150;8.568;2022-12-10T01:13:56;17.33;;;9.90;;
14078;SDS011;7115;50.150;8.568;2022-12-10T01:16:24;17.60;;;10.50;;
14078;SDS011;7115;50.150;8.568;2022-12-10T01:18:52;15.20;;;10.00;;
14078;SDS011;7115;50.150;8.568;2022-12-10T01:21:19;16.40;;;9.87;;
14078;SDS011;7115;50.150;8.568;2022-12-10T01:23:49;17.60;;;10.43;;
14078;SDS011;7115;50.150;8.568;2022-12-10T01:26:18;14.43;;;9.53;;
14078;SDS011;7115;50.150;8.568;2022-12-10T01:28:47;16.23;;;9.80;;
14078;SDS011;7115;50.150;8.568;2022-12-10T01:31:16;16.37;;;10.33;;
14078;SDS011;7115;50.150;8.568;2022-12-10T01:33:44;16.10;;;9.60;;
14078;SDS011;7115;50.150;8.568;2022-12-10T01:36:12;15.37;;;9.90;;
14078;SDS011;7115;50.150;8.568;2022-12-10T01:38:40;16.13;;;9.87;;
14078;SDS011;7115;50.150;8.568;2022-12-10T01:41:12;15.57;;;9.93;;
14078;SDS011;7115;50.150;8.568;2022-12-10T01:43:56;14.13;;;9.13;;
14078;SDS011;7115;50.150;8.568;2022-12-10T01:46:24;15.47;;;9.63;;
14078;SDS011;7115;50.150;8.568;2022-12-10T01:48:52;14.57;;;9.13;;
14078;SDS011;7115;50.150;8.568;2022-12-10T01:51:20;14.83;;;8.37;;
14078;SDS011;7115;50.150;8.568;2022-12-10T01:53:48;15.00;;;9.03;;
14078;SDS011;7115;50.150;8.568;2022-12-10T01:56:18;13.60;;;8.47;;
14078;SDS011;7115;50.150;8.568;2022-12-10T01:58:46;13.83;;;8.70;;
14078;SDS011;7115;50.150;8.568;2022-12-10T02:01:15;14.60;;;9.17;;
14078;SDS011;7115;50.150;8.568;2022-12-10T02:03:56;13.33;;;8.67;;
14078;SDS011;7115;50.150;8.568;2022-12-10T02:06:37;12.20;;;8.23;;
14078;SDS011;7115;50.150;8.568;2022-12-10T02:09:11;15.07;;;8.30;;
14078;SDS011;7115;50.150;8.568;2022-12-10T02:11:49;12.87;;;8.37;;
14078;SDS011;7115;50.150;8.568;2022-12-10T02:14:28;13.03;;;7.87;;
14078;SDS011;7115;50.150;8.568;2022-12-10T02:17:01;13.83;;;7.73;;
14078;SDS011;7115;50.150;8.568;2022-12-10T02:19:37;11.47;;;7.37;;
14078;SDS011;7115;50.150;8.568;2022-12-10T02:22:19;12.17;;;7.80;;
14078;SDS011;7115;50.150;8.568;2022-12-10T02:24:48;13.97;;;7.93;;
14078;SDS011;7115;50.150;8.568;2022-12-10T02:27:22;11.30;;;7.47;;
14078;SDS011;7115;50.150;8.568;2022-12-10T02:29:55;10.70;;;7.43;;
14078;SDS011;7115;50.150;8.568;2022-12-10T02:32:26;12.87;;;8.23;;
14078;SDS011;7115;50.150;8.568;2022-12-10T02:34:58;13.03;;;8.17;;
14078;SDS011;7115;50.150;8.568;2022-12-10T02:37:34;12.43;;;8.27;;
14078;SDS011;7115;50.150;8.568;2022-12-10T02:40:06;11.47;;;8.20;;
14078;SDS011;7115;50.150;8.568;2022-12-10T02:42:38;13.30;;;8.47;;
14078;SDS011;7115;50.150;8.568;2022-12-10T02:45:09;13.63;;;7.57;;
14078;SDS011;7115;50.150;8.568;2022-12-10T02:47:36;17.23;;;8.17;;
14078;SDS011;7115;50.150;8.568;2022-12-10T02:50:05;12.73;;;7.60;;
14078;SDS011;7115;50.150;8.568;2022-12-10T02:52:34;13.87;;;8.33;;
14078;SDS011;7115;50.150;8.568;2022-12-10T02:55:01;12.87;;;7.43;;
14078;SDS011;7115;50.150;8.568;2022-12-10T02:57:29;11.73;;;7.40;;
14078;SDS011;7115;50.150;8.568;2022-12-10T03:00:05;9.93;;;6.93;;
14078;SDS011;7115;50.150;8.568;2022-12-10T03:02:44;9.50;;;6.67;;
14078;SDS011;7115;50.150;8.568;2022-12-10T03:05:36;9.73;;;6.47;;
14078;SDS011;7115;50.150;8.568;2022-12-10T03:08:09;11.80;;;7.17;;
14078;SDS011;7115;50.150;8.568;2022-12-10T03:10:42;11.63;;;6.77;;
14078;SDS011;7115;50.150;8.568;2022-12-10T03:13:16;11.70;;;6.83;;
14078;SDS011;7115;50.150;8.568;2022-12-10T03:15:49;10.07;;;6.73;;
14078;SDS011;7115;50.150;8.568;2022-12-10T03:18:19;9.60;;;6.70;;
14078;SDS011;7115;50.150;8.568;2022-12-10T03:20:50;10.73;;;7.17;;
14078;SDS011;7115;50.150;8.568;2022-12-10T03:23:20;10.60;;;6.93;;
14078;SDS011;7115;50.150;8.568;2022-12-10T03:25:48;10.60;;;6.93;;
14078;SDS011;7115;50.150;8.568;2022-12-10T03:28:16;10.33;;;6.73;;
14078;SDS011;7115;50.150;8.568;2022-12-10T03:30:45;10.53;;;6.47;;
14078;SDS011;7115;50.150;8.568;2022-12-10T03:33:15;9.23;;;6.13;;
14078;SDS011;7115;50.150;8.568;2022-12-10T03:35:42;9.60;;;6.07;;
14078;SDS011;7115;50.150;8.568;2022-12-10T03:38:10;11.00;;;6.30;;
14078;SDS011;7115;50.150;8.568;2022-12-10T03:40:37;11.53;;;7.03;;
14078;SDS011;7115;50.150;8.568;2022-12-10T03:43:04;11.87;;;7.27;;
14078;SDS011;7115;50.150;8.568;2022-12-10T03:45:30;11.33;;;6.30;;
14078;SDS011;7115;50.150;8.568;2022-12-10T03:47:57;11.17;;;6.57;;
14078;SDS011;7115;50.150;8.568;2022-12-10T03:50:26;10.50;;;6.50;;
14078;SDS011;7115;50.150;8.568;2022-12-10T03:52:52;9.03;;;5.97;;
14078;SDS011;7115;50.150;8.568;2022-12-10T03:55:19;8.87;;;5.80;;
14078;SDS011;7115;50.150;8.568;2022-12-10T03:57:46;11.30;;;6.63;;
14078;SDS011;7115;50.150;8.568;2022-12-10T04:00:14;10.77;;;6.20;;
14078;SDS011;7115;50.150;8.568;2022-12-10T04:02:41;9.63;;;6.17;;
14078;SDS011;7115;50.150;8.568;2022-12-10T04:05:08;9.77;;;6.33;;
14078;SDS011;7115;50.150;8.568;2022-12-10T04:07:37;9.57;;;6.20;;
14078;SDS011;7115;50.150;8.568;2022-12-10T04:10:04;11.93;;;6.70;;
14078;SDS011;7115;50.150;8.568;2022-12-10T04:12:32;12.57;;;7.27;;
14078;SDS011;7115;50.150;8.568;2022-12-10T04:14:58;7.90;;;5.53;;
14078;SDS011;7115;50.150;8.568;2022-12-10T04:17:44;11.17;;;6.13;;
14078;SDS011;7115;50.150;8.568;2022-12-10T04:20:11;8.93;;;6.50;;
14078;SDS011;7115;50.150;8.568;2022-12-10T04:22:58;11.17;;;7.03;;
14078;SDS011;7115;50.150;8.568;2022-12-10T04:25:43;10.90;;;6.53;;
14078;SDS011;7115;50.150;8.568;2022-12-10T04:28:28;11.07;;;6.53;;
14078;SDS011;7115;50.150;8.568;2022-12-10T04:30:55;11.40;;;5.97;;
14078;SDS011;7115;50.150;8.568;2022-12-10T04:33:22;11.30;;;6.60;;
14078;SDS011;7115;50.150;8.568;2022-12-10T04:35:49;9.67;;;6.37;;
14078;SDS011;7115;50.150;8.568;2022-12-10T04:38:17;11.73;;;7.23;;
14078;SDS011;7115;50.150;8.568;2022-12-10T04:40:44;10.53;;;6.57;;
14078;SDS011;7115;50.150;8.568;2022-12-10T04:43:11;8.97;;;5.43;;
14078;SDS011;7115;50.150;8.568;2022-12-10T04:45:38;11.83;;;6.60;;
14078;SDS011;7115;50.150;8.568;2022-12-10T04:48:05;12.10;;;7.27;;
14078;SDS011;7115;50.150;8.568;2022-12-10T04:50:32;10.90;;;6.57;;
14078;SDS011;7115;50.150;8.568;2022-12-10T04:52:59;10.33;;;6.47;;
14078;SDS011;7115;50.150;8.568;2022-12-10T04:55:28;10.40;;;6.17;;
14078;SDS011;7115;50.150;8.568;2022-12-10T04:57:54;15.10;;;6.80;;
14078;SDS011;7115;50.150;8.568;2022-12-10T05:00:21;13.10;;;6.53;;
14078;SDS011;7115;50.150;8.568;2022-12-10T05:02:48;9.90;;;6.23;;
14078;SDS011;7115;50.150;8.568;2022-12-10T05:05:15;10.20;;;5.83;;
14078;SDS011;7115;50.150;8.568;2022-12-10T05:07:42;9.47;;;5.73;;
14078;SDS011;7115;50.150;8.568;2022-12-10T05:10:09;9.90;;;6.53;;
14078;SDS011;7115;50.150;8.568;2022-12-10T05:12:38;10.57;;;6.63;;
14078;SDS011;7115;50.150;8.568;2022-12-10T05:15:05;9.30;;;5.97;;
14078;SDS011;7115;50.150;8.568;2022-12-10T05:17:33;10.97;;;6.70;;
14078;SDS011;7115;50.150;8.568;2022-12-10T05:20:00;10.00;;;6.40;;
14078;SDS011;7115;50.150;8.568;2022-12-10T05:22:27;8.93;;;6.53;;
14078;SDS011;7115;50.150;8.568;2022-12-10T05:25:12;9.60;;;6.00;;
14078;SDS011;7115;50.150;8.568;2022-12-10T05:27:40;13.83;;;6.27;;
14078;SDS011;7115;50.150;8.568;2022-12-10T05:30:08;8.87;;;5.80;;
14078;SDS011;7115;50.150;8.568;2022-12-10T05:32:36;10.70;;;6.77;;
14078;SDS011;7115;50.150;8.568;2022-12-10T05:35:04;9.20;;;6.10;;
14078;SDS011;7115;50.150;8.568;2022-12-10T05:37:32;12.10;;;7.30;;
14078;SDS011;7115;50.150;8.568;2022-12-10T05:39:59;10.47;;;6.90;;
14078;SDS011;7115;50.150;8.568;2022-12-10T05:42:26;10.10;;;6.20;;
14078;SDS011;7115;50.150;8.568;2022-12-10T05:44:55;11.63;;;6.37;;
14078;SDS011;7115;50.150;8.568;2022-12-10T05:47:22;13.63;;;7.37;;
14078;SDS011;7115;50.150;8.568;2022-12-10T05:49:48;11.27;;;6.53;;
14078;SDS011;7115;50.150;8.568;2022-12-10T05:52:18;10.37;;;7.23;;
14078;SDS011;7115;50.150;8.568;2022-12-10T05:54:44;10.93;;;7.37;;
14078;SDS011;7115;50.150;8.568;2022-12-10T05:57:12;11.33;;;6.97;;
14078;SDS011;7115;50.150;8.568;2022-12-10T05:59:38;12.03;;;7.30;;
14078;SDS011;7115;50.150;8.568;2022-12-10T06:02:07;10.93;;;6.67;;
14078;SDS011;7115;50.150;8.568;2022-12-10T06:04:34;10.73;;;6.70;;
14078;SDS011;7115;50.150;8.568;2022-12-10T06:07:00;11.43;;;7.17;;
14078;SDS011;7115;50.150;8.568;2022-12-10T06:09:34;11.40;;;7.50;;
14078;SDS011;7115;50.150;8.568;2022-12-10T06:12:01;10.40;;;6.57;;
14078;SDS011;7115;50.150;8.568;2022-12-10T06:14:28;11.60;;;6.97;;
14078;SDS011;7115;50.150;8.568;2022-12-10T06:16:55;11.13;;;6.97;;
14078;SDS011;7115;50.150;8.568;2022-12-10T06:19:23;12.10;;;7.17;;
14078;SDS011;7115;50.150;8.568;2022-12-10T06:21:50;11.03;;;7.00;;
14078;SDS011;7115;50.150;8.568;2022-12-10T06:24:17;11.50;;;7.13;;
14078;SDS011;7115;50.150;8.568;2022-12-10T06:26:44;12.60;;;7.63;;
14078;SDS011;7115;50.150;8.568;2022-12-10T06:29:11;11.90;;;7.60;;
14078;SDS011;7115;50.150;8.568;2022-12-10T06:31:37;13.43;;;7.47;;
14078;SDS011;7115;50.150;8.568;2022-12-10T06:34:05;11.67;;;7.60;;
14078;SDS011;7115;50.150;8.568;2022-12-10T06:36:33;11.53;;;6.90;;
14078;SDS011;7115;50.150;8.568;2022-12-10T06:39:00;15.03;;;8.90;;
14078;SDS011;7115;50.150;8.568;2022-12-10T06:41:27;15.73;;;8.73;;
14078;SDS011;7115;50.150;8.568;2022-12-10T06:43:54;11.80;;;7.10;;
14078;SDS011;7115;50.150;8.568;2022-12-10T06:46:25;13.10;;;7.47;;
14078;SDS011;7115;50.150;8.568;2022-12-10T06:48:53;13.30;;;7.97;;
14078;SDS011;7115;50.150;8.568;2022-12-10T06:51:20;13.23;;;8.53;;
14078;SDS011;7115;50.150;8.568;2022-12-10T06:53:49;12.33;;;8.33;;
14078;SDS011;7115;50.150;8.568;2022-12-10T06:56:17;11.07;;;7.53;;
14078;SDS011;7115;50.150;8.568;2022-12-10T06:58:45;15.57;;;8.00;;
14078;SDS011;7115;50.150;8.568;2022-12-10T07:01:12;18.77;;;9.23;;
14078;SDS011;7115;50.150;8.568;2022-12-10T07:03:41;17.90;;;10.20;;
14078;SDS011;7115;50.150;8.568;2022-12-10T07:06:09;10.90;;;7.53;;
14078;SDS011;7115;50.150;8.568;2022-12-10T07:08:37;12.87;;;7.67;;
14078;SDS011;7115;50.150;8.568;2022-12-10T07:11:06;10.90;;;7.07;;
14078;SDS011;7115;50.150;8.568;2022-12-10T07:13:34;9.67;;;6.33;;
14078;SDS011;7115;50.150;8.568;2022-12-10T07:16:01;11.57;;;7.87;;
14078;SDS011;7115;50.150;8.568;2022-12-10T07:18:29;12.40;;;7.50;;
14078;SDS011;7115;50.150;8.568;2022-12-10T07:20:56;9.03;;;6.40;;
14078;SDS011;7115;50.150;8.568;2022-12-10T07:23:23;14.40;;;7.83;;
14078;SDS011;7115;50.150;8.568;2022-12-10T07:25:50;11.10;;;7.10;;
14078;SDS011;7115;50.150;8.568;2022-12-10T07:28:21;10.60;;;6.47;;
14078;SDS011;7115;50.150;8.568;2022-12-10T07:30:48;11.43;;;7.27;;
14078;SDS011;7115;50.150;8.568;2022-12-10T07:33:15;11.90;;;6.90;;
14078;SDS011;7115;50.150;8.568;2022-12-10T07:35:41;11.90;;;7.43;;
14078;SDS011;7115;50.150;8.568;2022-12-10T07:38:14;11.93;;;7.33;;
14078;SDS011;7115;50.150;8.568;2022-12-10T07:40:41;13.13;;;6.60;;
14078;SDS011;7115;50.150;8.568;2022-12-10T07:43:08;13.60;;;7.83;;
14078;SDS011;7115;50.150;8.568;2022-12-10T07:45:36;12.63;;;7.83;;
14078;SDS011;7115;50.150;8.568;2022-12-10T07:48:03;14.87;;;7.53;;
14078;SDS011;7115;50.150;8.568;2022-12-10T07:50:30;12.83;;;7.60;;
14078;SDS011;7115;50.150;8.568;2022-12-10T07:52:57;10.73;;;7.17;;
14078;SDS011;7115;50.150;8.568;2022-12-10T07:55:24;12.20;;;7.40;;
14078;SDS011;7115;50.150;8.568;2022-12-10T07:57:51;11.37;;;7.17;;
14078;SDS011;7115;50.150;8.568;2022-12-10T08:00:18;10.87;;;6.20;;
14078;SDS011;7115;50.150;8.568;2022-12-10T08:02:46;10.60;;;6.77;;
14078;SDS011;7115;50.150;8.568;2022-12-10T08:05:13;10.93;;;6.67;;
14078;SDS011;7115;50.150;8.568;2022-12-10T08:07:40;11.93;;;7.37;;
14078;SDS011;7115;50.150;8.568;2022-12-10T08:10:07;12.07;;;7.50;;
14078;SDS011;7115;50.150;8.568;2022-12-10T08:12:34;11.27;;;7.40;;
14078;SDS011;7115;50.150;8.568;2022-12-10T08:15:02;10.57;;;6.90;;
14078;SDS011;7115;50.150;8.568;2022-12-10T08:17:29;11.23;;;7.50;;
14078;SDS011;7115;50.150;8.568;2022-12-10T08:19:57;15.73;;;8.20;;
14078;SDS011;7115;50.150;8.568;2022-12-10T08:22:24;14.13;;;8.63;;
14078;SDS011;7115;50.150;8.568;2022-12-10T08:24:50;12.90;;;7.73;;
14078;SDS011;7115;50.150;8.568;2022-12-10T08:27:17;14.87;;;8.03;;
14078;SDS011;7115;50.150;8.568;2022-12-10T08:29:44;13.90;;;8.40;;
14078;SDS011;7115;50.150;8.568;2022-12-10T08:32:11;11.10;;;7.20;;
14078;SDS011;7115;50.150;8.568;2022-12-10T08:34:38;11.27;;;7.55;;
14078;SDS011;7115;50.150;8.568;2022-12-10T08:37:06;11.93;;;7.80;;
14078;SDS011;7115;50.150;8.568;2022-12-10T08:39:37;13.67;;;7.50;;
14078;SDS011;7115;50.150;8.568;2022-12-10T08:42:04;12.67;;;8.20;;
14078;SDS011;7115;50.150;8.568;2022-12-10T08:44:31;13.07;;;7.83;;
14078;SDS011;7115;50.150;8.568;2022-12-10T08:46:58;11.47;;;7.70;;
14078;SDS011;7115;50.150;8.568;2022-12-10T08:49:25;11.03;;;7.43;;
14078;SDS011;7115;50.150;8.568;2022-12-10T08:51:52;9.90;;;7.20;;
14078;SDS011;7115;50.150;8.568;2022-12-10T08:54:20;12.13;;;7.03;;
14078;SDS011;7115;50.150;8.568;2022-12-10T08:56:47;14.80;;;8.03;;
14078;SDS011;7115;50.150;8.568;2022-12-10T08:59:14;14.27;;;8.73;;
14078;SDS011;7115;50.150;8.568;2022-12-10T09:01:40;14.43;;;8.77;;
14078;SDS011;7115;50.150;8.568;2022-12-10T09:04:07;14.90;;;9.67;;
14078;SDS011;7115;50.150;8.568;2022-12-10T09:06:35;16.57;;;9.83;;
14078;SDS011;7115;50.150;8.568;2022-12-10T09:09:02;14.87;;;9.10;;
14078;SDS011;7115;50.150;8.568;2022-12-10T09:11:31;14.30;;;9.47;;
14078;SDS011;7115;50.150;8.568;2022-12-10T09:14:00;13.97;;;8.73;;
14078;SDS011;7115;50.150;8.568;2022-12-10T09:16:27;14.15;;;9.18;;
14078;SDS011;7115;50.150;8.568;2022-12-10T09:18:56;18.30;;;10.75;;
14078;SDS011;7115;50.150;8.568;2022-12-10T09:21:23;15.07;;;9.03;;
14078;SDS011;7115;50.150;8.568;2022-12-10T09:23:50;15.43;;;9.63;;
14078;SDS011;7115;50.150;8.568;2022-12-10T09:26:18;15.07;;;9.20;;
14078;SDS011;7115;50.150;8.568;2022-12-10T09:28:47;13.37;;;8.67;;
14078;SDS011;7115;50.150;8.568;2022-12-10T09:31:15;12.63;;;8.03;;
14078;SDS011;7115;50.150;8.568;2022-12-10T09:33:46;15.07;;;9.47;;
14078;SDS011;7115;50.150;8.568;2022-12-10T09:36:14;16.23;;;9.77;;
14078;SDS011;7115;50.150;8.568;2022-12-10T09:38:42;13.50;;;8.57;;
14078;SDS011;7115;50.150;8.568;2022-12-10T09:41:15;16.97;;;9.50;;
14078;SDS011;7115;50.150;8.568;2022-12-10T09:43:57;13.33;;;9.20;;
14078;SDS011;7115;50.150;8.568;2022-12-10T09:46:31;15.10;;;9.97;;
14078;SDS011;7115;50.150;8.568;2022-12-10T09:49:15;14.47;;;9.60;;
14078;SDS011;7115;50.150;8.568;2022-12-10T09:51:53;13.80;;;9.17;;
14078;SDS011;7115;50.150;8.568;2022-12-10T09:54:23;17.50;;;9.23;;
14078;SDS011;7115;50.150;8.568;2022-12-10T09:56:52;13.47;;;8.87;;
14078;SDS011;7115;50.150;8.568;2022-12-10T09:59:23;13.60;;;8.40;;
14078;SDS011;7115;50.150;8.568;2022-12-10T10:01:58;9.67;;;7.03;;
14078;SDS011;7115;50.150;8.568;2022-12-10T10:04:30;8.20;;;5.73;;
14078;SDS011;7115;50.150;8.568;2022-12-10T10:06:56;8.47;;;5.80;;
14078;SDS011;7115;50.150;8.568;2022-12-10T10:09:24;9.70;;;5.67;;
14078;SDS011;7115;50.150;8.568;2022-12-10T10:11:51;9.07;;;6.03;;
14078;SDS011;7115;50.150;8.568;2022-12-10T10:14:19;7.53;;;5.63;;
14078;SDS011;7115;50.150;8.568;2022-12-10T10:16:53;9.03;;;5.77;;
14078;SDS011;7115;50.150;8.568;2022-12-10T10:19:27;8.57;;;6.17;;
14078;SDS011;7115;50.150;8.568;2022-12-10T10:21:56;7.70;;;5.80;;
14078;SDS011;7115;50.150;8.568;2022-12-10T10:24:26;7.50;;;5.57;;
14078;SDS011;7115;50.150;8.568;2022-12-10T10:26:59;11.13;;;6.57;;
14078;SDS011;7115;50.150;8.568;2022-12-10T10:29:39;9.00;;;5.77;;
14078;SDS011;7115;50.150;8.568;2022-12-10T10:32:10;9.37;;;6.43;;
14078;SDS011;7115;50.150;8.568;2022-12-10T10:34:40;10.13;;;7.03;;
14078;SDS011;7115;50.150;8.568;2022-12-10T10:37:11;10.93;;;7.27;;
14078;SDS011;7115;50.150;8.568;2022-12-10T10:39:46;9.87;;;7.13;;
14078;SDS011;7115;50.150;8.568;2022-12-10T10:42:19;9.07;;;5.70;;
14078;SDS011;7115;50.150;8.568;2022-12-10T10:45:03;9.47;;;6.17;;
14078;SDS011;7115;50.150;8.568;2022-12-10T10:47:33;8.90;;;6.03;;
14078;SDS011;7115;50.150;8.568;2022-12-10T10:50:03;10.80;;;6.33;;
14078;SDS011;7115;50.150;8.568;2022-12-10T10:52:34;10.93;;;6.70;;
14078;SDS011;7115;50.150;8.568;2022-12-10T10:55:03;9.80;;;6.77;;
14078;SDS011;7115;50.150;8.568;2022-12-10T10:57:32;10.43;;;7.37;;
14078;SDS011;7115;50.150;8.568;2022-12-10T11:00:02;10.07;;;6.90;;
14078;SDS011;7115;50.150;8.568;2022-12-10T11:02:36;9.63;;;6.20;;
14078;SDS011;7115;50.150;8.568;2022-12-10T11:05:04;9.40;;;6.93;;
14078;SDS011;7115;50.150;8.568;2022-12-10T11:07:34;10.47;;;6.97;;
14078;SDS011;7115;50.150;8.568;2022-12-10T11:10:02;11.73;;;7.40;;
14078;SDS011;7115;50.150;8.568;2022-12-10T11:12:41;9.70;;;6.63;;
14078;SDS011;7115;50.150;8.568;2022-12-10T11:15:31;8.67;;;6.50;;
14078;SDS011;7115;50.150;8.568;2022-12-10T11:18:00;12.40;;;7.23;;
14078;SDS011;7115;50.150;8.568;2022-12-10T11:20:29;16.13;;;7.53;;
14078;SDS011;7115;50.150;8.568;2022-12-10T11:23:08;8.97;;;6.63;;
14078;SDS011;7115;50.150;8.568;2022-12-10T11:25:39;10.70;;;6.87;;
14078;SDS011;7115;50.150;8.568;2022-12-10T11:28:15;11.27;;;7.33;;
14078;SDS011;7115;50.150;8.568;2022-12-10T11:30:57;10.97;;;7.07;;
14078;SDS011;7115;50.150;8.568;2022-12-10T11:33:33;12.27;;;7.57;;
14078;SDS011;7115;50.150;8.568;2022-12-10T11:36:11;12.87;;;8.07;;
14078;SDS011;7115;50.150;8.568;2022-12-10T11:38:50;12.10;;;7.20;;
14078;SDS011;7115;50.150;8.568;2022-12-10T11:41:25;10.80;;;6.90;;
14078;SDS011;7115;50.150;8.568;2022-12-10T11:44:06;11.43;;;7.93;;
14078;SDS011;7115;50.150;8.568;2022-12-10T11:46:51;11.07;;;7.07;;
14078;SDS011;7115;50.150;8.568;2022-12-10T11:49:32;10.33;;;6.50;;
14078;SDS011;7115;50.150;8.568;2022-12-10T11:52:06;10.40;;;6.50;;
14078;SDS011;7115;50.150;8.568;2022-12-10T11:54:49;10.40;;;7.10;;
14078;SDS011;7115;50.150;8.568;2022-12-10T11:57:31;10.60;;;6.97;;
14078;SDS011;7115;50.150;8.568;2022-12-10T12:00:12;11.63;;;7.47;;
14078;SDS011;7115;50.150;8.568;2022-12-10T12:05:56;10.63;;;7.70;;
14078;SDS011;7115;50.150;8.568;2022-12-10T12:08:35;11.27;;;7.80;;
14078;SDS011;7115;50.150;8.568;2022-12-10T12:11:17;12.07;;;8.10;;
14078;SDS011;7115;50.150;8.568;2022-12-10T12:13:57;9.60;;;6.73;;
14078;SDS011;7115;50.150;8.568;2022-12-10T12:16:29;11.10;;;7.27;;
14078;SDS011;7115;50.150;8.568;2022-12-10T12:19:02;11.63;;;6.70;;
14078;SDS011;7115;50.150;8.568;2022-12-10T12:21:34;9.80;;;7.10;;
14078;SDS011;7115;50.150;8.568;2022-12-10T12:24:03;11.03;;;6.97;;
14078;SDS011;7115;50.150;8.568;2022-12-10T12:26:38;10.37;;;6.40;;
14078;SDS011;7115;50.150;8.568;2022-12-10T12:29:11;11.67;;;7.10;;
14078;SDS011;7115;50.150;8.568;2022-12-10T12:31:46;10.97;;;6.93;;
14078;SDS011;7115;50.150;8.568;2022-12-10T12:34:17;11.47;;;6.63;;
14078;SDS011;7115;50.150;8.568;2022-12-10T12:36:47;11.77;;;6.87;;
14078;SDS011;7115;50.150;8.568;2022-12-10T12:39:17;9.30;;;6.80;;
14078;SDS011;7115;50.150;8.568;2022-12-10T12:41:55;10.47;;;6.30;;
14078;SDS011;7115;50.150;8.568;2022-12-10T12:44:29;11.10;;;6.80;;
14078;SDS011;7115;50.150;8.568;2022-12-10T12:47:04;9.67;;;6.50;;
14078;SDS011;7115;50.150;8.568;2022-12-10T12:49:46;10.03;;;6.77;;
14078;SDS011;7115;50.150;8.568;2022-12-10T12:52:18;12.33;;;6.50;;
14078;SDS011;7115;50.150;8.568;2022-12-10T12:54:56;9.07;;;6.63;;
14078;SDS011;7115;50.150;8.568;2022-12-10T12:57:28;7.90;;;5.83;;
14078;SDS011;7115;50.150;8.568;2022-12-10T13:00:01;8.63;;;5.87;;
14078;SDS011;7115;50.150;8.568;2022-12-10T13:02:43;9.57;;;6.47;;
14078;SDS011;7115;50.150;8.568;2022-12-10T13:05:20;8.93;;;6.60;;
14078;SDS011;7115;50.150;8.568;2022-12-10T13:10:46;10.80;;;6.67;;
14078;SDS011;7115;50.150;8.568;2022-12-10T13:13:22;8.43;;;5.87;;
14078;SDS011;7115;50.150;8.568;2022-12-10T13:15:51;7.93;;;5.83;;
14078;SDS011;7115;50.150;8.568;2022-12-10T13:18:19;9.10;;;6.27;;
14078;SDS011;7115;50.150;8.568;2022-12-10T13:21:25;9.13;;;6.30;;
14078;SDS011;7115;50.150;8.568;2022-12-10T13:24:04;7.40;;;5.53;;
14078;SDS011;7115;50.150;8.568;2022-12-10T13:26:33;8.13;;;5.80;;
14078;SDS011;7115;50.150;8.568;2022-12-10T13:29:11;9.60;;;6.10;;
14078;SDS011;7115;50.150;8.568;2022-12-10T13:31:54;10.37;;;6.17;;
14078;SDS011;7115;50.150;8.568;2022-12-10T13:34:29;9.90;;;6.17;;
14078;SDS011;7115;50.150;8.568;2022-12-10T13:40:02;8.53;;;5.80;;
14078;SDS011;7115;50.150;8.568;2022-12-10T13:42:43;7.43;;;5.47;;
14078;SDS011;7115;50.150;8.568;2022-12-10T13:45:31;8.03;;;5.10;;
14078;SDS011;7115;50.150;8.568;2022-12-10T13:48:16;7.73;;;5.03;;
14078;SDS011;7115;50.150;8.568;2022-12-10T13:50:54;7.90;;;5.57;;
14078;SDS011;7115;50.150;8.568;2022-12-10T13:53:37;8.03;;;5.43;;
14078;SDS011;7115;50.150;8.568;2022-12-10T13:56:13;7.90;;;5.40;;
14078;SDS011;7115;50.150;8.568;2022-12-10T13:58:48;7.03;;;4.93;;
14078;SDS011;7115;50.150;8.568;2022-12-10T14:01:25;7.63;;;5.63;;
14078;SDS011;7115;50.150;8.568;2022-12-10T14:06:53;7.83;;;5.40;;
14078;SDS011;7115;50.150;8.568;2022-12-10T14:09:22;7.03;;;5.77;;
14078;SDS011;7115;50.150;8.568;2022-12-10T14:11:53;7.00;;;4.90;;
14078;SDS011;7115;50.150;8.568;2022-12-10T14:14:23;9.40;;;6.27;;
14078;SDS011;7115;50.150;8.568;2022-12-10T14:16:54;8.70;;;5.63;;
14078;SDS011;7115;50.150;8.568;2022-12-10T14:19:22;8.90;;;5.17;;
14078;SDS011;7115;50.150;8.568;2022-12-10T14:21:52;7.80;;;5.20;;
14078;SDS011;7115;50.150;8.568;2022-12-10T14:24:31;8.50;;;5.60;;
14078;SDS011;7115;50.150;8.568;2022-12-10T14:27:02;7.97;;;5.67;;
14078;SDS011;7115;50.150;8.568;2022-12-10T14:29:37;8.43;;;5.47;;
14078;SDS011;7115;50.150;8.568;2022-12-10T14:32:10;8.70;;;5.50;;
14078;SDS011;7115;50.150;8.568;2022-12-10T14:34:41;7.27;;;5.30;;
14078;SDS011;7115;50.150;8.568;2022-12-10T14:37:09;8.57;;;5.97;;
14078;SDS011;7115;50.150;8.568;2022-12-10T14:39:41;8.53;;;5.60;;
14078;SDS011;7115;50.150;8.568;2022-12-10T14:42:09;7.83;;;5.30;;
14078;SDS011;7115;50.150;8.568;2022-12-10T14:44:42;9.27;;;6.37;;
14078;SDS011;7115;50.150;8.568;2022-12-10T14:47:12;9.20;;;5.30;;
14078;SDS011;7115;50.150;8.568;2022-12-10T14:49:42;7.47;;;5.20;;
14078;SDS011;7115;50.150;8.568;2022-12-10T14:52:12;9.10;;;5.83;;
14078;SDS011;7115;50.150;8.568;2022-12-10T14:54:42;8.57;;;6.00;;
14078;SDS011;7115;50.150;8.568;2022-12-10T14:57:11;7.83;;;5.20;;
14078;SDS011;7115;50.150;8.568;2022-12-10T14:59:44;8.13;;;5.57;;
14078;SDS011;7115;50.150;8.568;2022-12-10T15:02:17;9.27;;;6.13;;
14078;SDS011;7115;50.150;8.568;2022-12-10T15:04:47;8.20;;;5.43;;
14078;SDS011;7115;50.150;8.568;2022-12-10T15:07:17;9.20;;;5.80;;
14078;SDS011;7115;50.150;8.568;2022-12-10T15:09:48;8.97;;;6.33;;
14078;SDS011;7115;50.150;8.568;2022-12-10T15:12:19;8.73;;;6.17;;
14078;SDS011;7115;50.150;8.568;2022-12-10T15:14:54;11.33;;;5.87;;
14078;SDS011;7115;50.150;8.568;2022-12-10T15:17:35;8.67;;;5.93;;
14078;SDS011;7115;50.150;8.568;2022-12-10T15:20:09;8.27;;;5.47;;
14078;SDS011;7115;50.150;8.568;2022-12-10T15:22:44;8.40;;;5.90;;
14078;SDS011;7115;50.150;8.568;2022-12-10T15:25:14;11.07;;;7.13;;